Buchanan, North Dakota
Current Conditions -  °F | °C
As of 1:56 PM on Thursday 30 Oct 2014 (Local Time) from KJMS Reporting Station
Overcast Overcast  
Wind Chill: 24°   Ceiling: 1600
Heat Index: 36°   Visibility: 10mi
Dew Point: 28°   Wind: 23mph
Humidity: 73%   Direction: 10°N
Pressure: 30.35"   Gusts: 29mph
Location:  47.06°N, 98.83°W
Report Text: KJMS 301856Z AUTO 01020G25KT 10SM OVC016 02/M02 A3035 RMK AO2 SNB35E46 SLP294 P0000 T00221022
Loading
Personal Weather Stations






























Interactive Weather Map
Tropical Storm Tracking
New forecast layout! Learn more

10-Day Weather Forecast

Advertisements
Track Severe Weather on mobile